Terminal Aerodrome Forecast
Issued by NWS

Home | Current Version | Previous Version | Text Only | Print | Product List | Glossary On
Versions: 1 2 3 4 5 6 7 8 9 10 11 12 13 14 15 16 17
879
FTUS44 KMAF 231929 CCA
TAFHOB
TAF COR
KHOB 231929Z 2319/2418 19011G20KT P6SM SCT050 BKN100
      TEMPO 2320/2324 VRB15G30KT 3SM TSRA BKN050CB
     FM240200 15011KT P6SM OVC100=

USA.gov is the U.S. government's official web portal to all federal, state and local government web resources and services.